MET5207 - Boston to Greenville - Spartanburg

Embraer ERJ-170LR
N924AG
2 hrs 00 mins
691 nm
Scheduled - Daily

Bid/PiRep Status

Bid was submitted on December 31st, 2016 20:32 UTC.
PiRep # 74548: Approved by Sean Doyle on January 1st, 2017 20:52 UTC

Departure

Departing from
Boston (BOS)
Departure gate
Scheduled Departure
GMT 1900
Local 1500
METAR KBOS 201746Z 02021G29KT 1 3/4SM R04R/5500VP6000FT -RA BR BKN007 OVC012 19/19 A2986 RMK AO2 PK WND 03031/1724 TWR VIS 4 P0000 T01940189
TAF KBOS 201524Z 2015/2118 02015G25KT 2SM -SHRA BR OVC006 FM201800 03019G30KT 6SM -SHRA BR OVC010 FM210200 01016G32KT 5SM BR OVC020 FM210500 01016G31KT P6SM OVC025 FM211400 02020G34KT P6SM BKN250

Arrival

Arriving at
Greenville - Spartanburg (GSP)
Arrival gate
Unassigned
Scheduled Arrival
GMT 2100
Local 1700
METAR KGSP 201753Z 35004KT 10SM CLR 31/17 A3004 RMK AO2 SLP158 T03060167 10306 20194 58014
TAF KGSP 201737Z 2018/2118 VRB04KT P6SM FEW045 FM210100 33003KT P6SM FEW070 SCT200 FM211300 04004KT P6SM FEW035

Route Map

Planning Resources

HAFNR GVE LYH
TERPZ3 LDN GVE J75 GSO J14 SPA
TERPZ5 FLASK J48 SPA92 J53 SPA ICASY OXABY
PATSS SWALO J75 SBJ V419 BIGGY J75 GVE V476 LYH WHTTL
BOS PUT HFD RBV OOD OTT GVE LYH SPA KGSP
Route:
OFP Layout:
Units:
Detailed Navlog:
ETOPS Planning:
Plan Stepclimbs:
Runway Analysis:
Include NOTAMS:
FIR NOTAMS:
Flight Maps:

Return Flights

MET5208
Embraer ERJ-170LR
2200 GMT
MET5210
Embraer ERJ-170LR
1030 GMT

Popularity

Hub Current Bids PiReps this month Total PiReps
KMCI 0 0 2
KLAX 0 0 0
KBOS 0 0 3